Time;durP1;ratioP1;P1;durP2;ratioP2;P2;SDS_P1;SDS_P2;PMS_P1;PMS_P2;Temp;Humidity;BMP_temperature;BMP_pressure;BME280_temperature;BME280_humidity;BME280_pressure;Samples;Min_cycle;Max_cycle;Signal;HPM_P1;HPM_P2
2023/04/28 00:02:09;;;;;;;;;;;;;;;15.08;94.70;98567.16;5015912;28;19967;-39
2023/04/28 00:04:34;;;;;;;;;;;;;;;14.38;92.43;98549.41;5020883;28;19924;-39
2023/04/28 00:06:59;;;;;;;;;;;;;;;14.26;93.97;98553.53;5020897;28;19925;-39
2023/04/28 00:09:24;;;;;;;;;;;;;;;14.17;95.10;98565.22;5019614;28;19979;-39
2023/04/28 00:11:49;;;;;;;;;;;;;;;14.99;94.70;98556.41;5017750;28;19924;-39
2023/04/28 00:14:15;;;;;;;;;;;;;;;14.11;94.15;98544.81;5015909;28;19921;-39
2023/04/28 00:16:40;;;;;;;;;;;;;;;14.15;94.73;98555.84;5018810;28;19979;-39
2023/04/28 00:19:06;;;;;;;;;;;;;;;14.52;97.27;98564.22;5020426;28;20349;-39
2023/04/28 00:21:31;;;;;;;;;;;;;;;14.29;96.49;98561.13;5019373;28;19999;-39
2023/04/28 00:23:56;;;;;;;;;;;;;;;14.70;97.47;98557.22;5022184;28;19925;-39
2023/04/28 00:26:22;;;;;;;;;;;;;;;15.11;93.79;98525.50;5019524;28;19928;-39
2023/04/28 00:28:47;;;;;;;;;;;;;;;14.67;93.91;98519.34;5023741;28;19925;-39
2023/04/28 00:31:12;;;;;;;;;;;;;;;14.27;93.66;98518.09;5020911;28;20347;-39
2023/04/28 00:33:41;;;;;;;;;;;;;;;14.43;95.51;98524.91;5019030;28;19948;-39
2023/04/28 00:36:06;;;;;;;;;;;;;;;14.58;95.15;98517.25;5027145;28;19921;-39
2023/04/28 00:38:32;;;;;;;;;;;;;;;14.26;94.23;98516.44;5021617;28;19928;-39
2023/04/28 00:40:57;;;;;;;;;;;;;;;14.41;94.15;98510.38;5020323;28;19927;-39
2023/04/28 00:43:22;;;;;;;;;;;;;;;14.51;93.02;98496.00;5018707;28;19913;-39
2023/04/28 00:45:48;;;;;;;;;;;;;;;14.69;94.39;98504.53;5024925;28;20381;-39
2023/04/28 00:48:13;;;;;;;;;;;;;;;14.31;93.21;98493.69;5021555;28;19921;-39
2023/04/28 00:50:38;;;;;;;;;;;;;;;14.33;93.29;98491.84;5023362;28;20325;-39
2023/04/28 00:53:03;;;;;;;;;;;;;;;14.45;94.21;98491.16;5020312;28;20301;-39
2023/04/28 00:55:30;;;;;;;;;;;;;;;14.87;94.72;98496.63;5023349;28;21137;-39
2023/04/28 00:57:55;;;;;;;;;;;;;;;14.91;93.54;98467.84;5019540;28;19973;-39
2023/04/28 01:00:20;;;;;;;;;;;;;;;14.97;94.93;98490.81;5021176;28;20347;-39
2023/04/28 01:02:46;;;;;;;;;;;;;;;14.73;94.49;98482.69;5018363;28;20015;-39
2023/04/28 01:05:11;;;;;;;;;;;;;;;15.09;92.81;98465.09;5021554;28;19928;-39
2023/04/28 01:07:36;;;;;;;;;;;;;;;14.84;93.88;98479.47;5004850;28;19920;-39
2023/04/28 01:10:02;;;;;;;;;;;;;;;14.69;92.86;98475.16;5019367;28;19974;-39
2023/04/28 01:12:27;;;;;;;;;;;;;;;14.33;93.13;98476.31;5018053;28;19924;-39
2023/04/28 01:14:52;;;;;;;;;;;;;;;14.20;93.53;98479.56;5020741;28;19943;-39
2023/04/28 01:17:18;;;;;;;;;;;;;;;14.39;94.59;98476.81;5020373;28;20416;-39
2023/04/28 01:19:43;;;;;;;;;;;;;;;15.15;96.08;98488.09;5019287;28;20453;-39
2023/04/28 01:22:14;;;;;;;;;;;;;;;15.28;96.13;98481.25;5028328;28;20335;-39
2023/04/28 01:24:39;;;;;;;;;;;;;;;14.79;97.66;98502.25;5021665;28;20294;-39
2023/04/28 01:27:05;;;;;;;;;;;;;;;15.13;99.80;98515.88;5018660;28;20282;-39
2023/04/28 01:29:30;;;;;;;;;;;;;;;15.00;97.77;98508.78;5018720;28;19917;-39
2023/04/28 01:31:55;;;;;;;;;;;;;;;15.37;98.03;98506.66;5025460;28;20003;-39
2023/04/28 01:34:20;;;;;;;;;;;;;;;14.82;98.83;98505.53;5017896;28;19975;-39
2023/04/28 01:36:45;;;;;;;;;;;;;;;14.50;97.92;98491.72;5024990;28;19925;-39
2023/04/28 01:39:11;;;;;;;;;;;;;;;15.12;100.00;98507.25;5019158;28;20342;-39
2023/04/28 01:41:36;;;;;;;;;;;;;;;14.50;99.24;98498.69;5018083;28;20108;-39
2023/04/28 01:44:02;;;;;;;;;;;;;;;14.96;99.80;98491.75;5020933;28;19921;-39
2023/04/28 01:46:27;;;;;;;;;;;;;;;14.67;100.00;98506.38;5019104;28;19921;-39
2023/04/28 01:48:53;;;;;;;;;;;;;;;15.33;100.00;98506.91;5018874;28;19978;-39
2023/04/28 01:51:18;;;;;;;;;;;;;;;14.80;100.00;98503.91;5020561;28;19917;-39
2023/04/28 01:53:43;;;;;;;;;;;;;;;14.93;98.98;98486.72;5022764;28;20438;-39
2023/04/28 01:56:08;;;;;;;;;;;;;;;14.52;98.94;98486.47;5019078;28;19921;-39
2023/04/28 01:58:34;;;;;;;;;;;;;;;14.76;100.00;98499.84;5018593;28;19931;-39
2023/04/28 02:00:59;;;;;;;;;;;;;;;15.12;98.98;98478.72;5018275;28;19948;-39
2023/04/28 02:03:24;;;;;;;;;;;;;;;15.18;98.95;98478.34;5023806;28;19920;-39
2023/04/28 02:05:49;;;;;;;;;;;;;;;14.54;99.76;98490.69;5018765;28;19925;-39
2023/04/28 02:08:15;;;;;;;;;;;;;;;15.12;99.45;98473.53;5020262;28;19921;-39
2023/04/28 02:10:40;;;;;;;;;;;;;;;14.45;100.00;98498.94;5021967;28;19928;-39
2023/04/28 02:13:06;;;;;;;;;;;;;;;15.30;100.00;98500.13;5016790;28;20321;-39
2023/04/28 02:15:31;;;;;;;;;;;;;;;15.44;100.00;98491.50;5016676;28;19928;-39
2023/04/28 02:17:56;;;;;;;;;;;;;;;15.36;100.00;98522.28;5018347;28;19925;-39
2023/04/28 02:20:21;;;;;;;;;;;;;;;14.54;100.00;98531.28;5023213;28;20372;-39
2023/04/28 02:22:47;;;;;;;;;;;;;;;15.82;100.00;98517.78;5017391;28;20368;-39
2023/04/28 02:25:12;;;;;;;;;;;;;;;16.15;100.00;98518.38;5022242;28;20375;-39
2023/04/28 02:27:37;;;;;;;;;;;;;;;15.62;100.00;98520.72;5017938;28;20145;-39
2023/04/28 02:30:03;;;;;;;;;;;;;;;16.05;100.00;98518.97;5020057;28;19928;-39
2023/04/28 02:32:28;;;;;;;;;;;;;;;15.63;100.00;98532.78;5016749;28;19950;-39
2023/04/28 02:34:54;;;;;;;;;;;;;;;14.54;100.00;98542.50;5018214;28;20661;-39
2023/04/28 02:37:19;;;;;;;;;;;;;;;15.24;100.00;98545.44;5010870;28;19936;-39
2023/04/28 02:39:45;;;;;;;;;;;;;;;15.08;100.00;98541.25;5018510;28;20360;-39
2023/04/28 02:42:10;;;;;;;;;;;;;;;14.97;100.00;98550.44;5016918;28;20011;-39
2023/04/28 02:44:35;;;;;;;;;;;;;;;14.68;100.00;98553.84;5016410;28;19925;-39
2023/04/28 02:47:00;;;;;;;;;;;;;;;15.13;100.00;98513.28;5016981;28;19974;-39
2023/04/28 02:49:26;;;;;;;;;;;;;;;14.56;100.00;98543.25;5018225;28;19917;-39
2023/04/28 02:51:51;;;;;;;;;;;;;;;14.56;100.00;98538.06;5018913;28;19928;-39
2023/04/28 02:54:26;;;;;;;;;;;;;;;14.40;100.00;98534.63;5019827;28;19917;-39
2023/04/28 02:56:51;;;;;;;;;;;;;;;14.50;100.00;98535.78;5018846;28;19925;-39
2023/04/28 02:59:16;;;;;;;;;;;;;;;13.98;100.00;98543.78;5017195;28;20145;-39
2023/04/28 03:01:41;;;;;;;;;;;;;;;13.65;100.00;98555.00;5021969;28;19928;-39
2023/04/28 03:04:07;;;;;;;;;;;;;;;14.30;100.00;98544.66;5015854;28;19920;-39
2023/04/28 03:06:32;;;;;;;;;;;;;;;13.96;100.00;98545.66;5017470;28;19928;-39
2023/04/28 03:08:57;;;;;;;;;;;;;;;13.86;100.00;98544.44;5017804;28;19967;-39
2023/04/28 03:11:22;;;;;;;;;;;;;;;14.51;100.00;98523.69;5017764;28;19984;-39
2023/04/28 03:13:48;;;;;;;;;;;;;;;14.06;100.00;98549.41;5016931;28;19921;-39
2023/04/28 03:16:13;;;;;;;;;;;;;;;13.74;100.00;98541.59;5014777;28;19921;-39
2023/04/28 03:18:38;;;;;;;;;;;;;;;14.20;100.00;98527.94;5023133;28;19928;-39
2023/04/28 03:21:03;;;;;;;;;;;;;;;14.57;100.00;98531.13;5017277;28;19960;-39
2023/04/28 03:23:29;;;;;;;;;;;;;;;15.10;100.00;98516.03;5016752;28;20010;-39
2023/04/28 03:25:55;;;;;;;;;;;;;;;14.36;100.00;98533.13;5019449;28;19923;-39
2023/04/28 03:28:20;;;;;;;;;;;;;;;13.95;100.00;98552.56;5016612;28;19928;-39
2023/04/28 03:30:45;;;;;;;;;;;;;;;14.08;100.00;98557.94;5016364;28;20389;-39
2023/04/28 03:33:10;;;;;;;;;;;;;;;14.30;100.00;98560.22;5015876;28;20386;-39
2023/04/28 03:35:35;;;;;;;;;;;;;;;15.31;100.00;98543.31;5016394;28;19962;-39
2023/04/28 03:38:01;;;;;;;;;;;;;;;14.47;100.00;98551.50;5023735;28;19925;-39
2023/04/28 03:40:26;;;;;;;;;;;;;;;14.22;100.00;98555.44;5019254;28;20283;-39
2023/04/28 03:42:51;;;;;;;;;;;;;;;14.28;100.00;98556.00;5013790;28;19952;-39
2023/04/28 03:45:16;;;;;;;;;;;;;;;13.98;100.00;98567.09;5020586;28;19921;-39
2023/04/28 03:47:42;;;;;;;;;;;;;;;14.20;100.00;98557.25;5020228;28;19921;-41
2023/04/28 03:50:07;;;;;;;;;;;;;;;13.89;100.00;98549.47;5021811;28;19924;-39
2023/04/28 03:52:32;;;;;;;;;;;;;;;13.63;100.00;98564.59;5024246;28;19928;-39
2023/04/28 03:54:57;;;;;;;;;;;;;;;14.32;100.00;98568.75;5020267;28;20321;-39
2023/04/28 03:57:23;;;;;;;;;;;;;;;14.03;100.00;98565.13;5024078;28;20351;-39
2023/04/28 03:59:48;;;;;;;;;;;;;;;14.38;100.00;98563.22;5021978;28;20109;-39
2023/04/28 04:02:13;;;;;;;;;;;;;;;14.44;100.00;98562.06;5020218;28;20015;-39
2023/04/28 04:04:38;;;;;;;;;;;;;;;14.60;100.00;98552.53;5029739;28;20043;-39
2023/04/28 04:07:03;;;;;;;;;;;;;;;13.74;100.00;98561.47;5020389;28;20011;-39
2023/04/28 04:09:29;;;;;;;;;;;;;;;14.36;100.00;98565.03;5020563;28;20132;-39
2023/04/28 04:11:54;;;;;;;;;;;;;;;15.00;100.00;98550.28;5019721;28;19921;-39
2023/04/28 04:14:19;;;;;;;;;;;;;;;14.06;100.00;98552.00;5020461;28;19921;-39
2023/04/28 04:16:46;;;;;;;;;;;;;;;13.95;100.00;98559.50;5018385;28;19929;-39
2023/04/28 04:19:11;;;;;;;;;;;;;;;14.83;100.00;98547.81;5020722;28;20193;-39
2023/04/28 04:21:36;;;;;;;;;;;;;;;13.48;100.00;98566.22;5020771;28;20279;-40
2023/04/28 04:24:01;;;;;;;;;;;;;;;14.01;100.00;98559.19;5023124;28;19925;-39
2023/04/28 04:26:26;;;;;;;;;;;;;;;13.51;100.00;98560.06;5024105;28;19923;-39
2023/04/28 04:28:52;;;;;;;;;;;;;;;13.93;100.00;98566.50;5027704;28;19917;-40
2023/04/28 04:31:18;;;;;;;;;;;;;;;13.63;100.00;98564.59;5023600;28;19927;-39
2023/04/28 04:33:43;;;;;;;;;;;;;;;13.85;100.00;98556.56;5025834;28;19959;-39
2023/04/28 04:36:09;;;;;;;;;;;;;;;13.04;100.00;98581.31;5020107;28;19925;-39
2023/04/28 04:38:34;;;;;;;;;;;;;;;13.19;100.00;98575.41;5020680;28;20304;-39
2023/04/28 04:40:59;;;;;;;;;;;;;;;14.06;100.00;98583.06;5020525;28;20263;-39
2023/04/28 04:43:24;;;;;;;;;;;;;;;13.37;100.00;98584.88;5018478;28;19920;-39
2023/04/28 04:45:50;;;;;;;;;;;;;;;13.97;100.00;98596.50;5018060;28;20356;-39
2023/04/28 04:48:15;;;;;;;;;;;;;;;13.51;100.00;98594.53;4999748;28;20124;-39
2023/04/28 04:50:41;;;;;;;;;;;;;;;13.37;100.00;98592.63;5019445;28;19921;-39
2023/04/28 04:53:06;;;;;;;;;;;;;;;13.49;100.00;98598.09;5015539;28;19929;-39
2023/04/28 04:55:31;;;;;;;;;;;;;;;13.83;100.00;98592.03;5023186;28;20470;-39
2023/04/28 04:57:57;;;;;;;;;;;;;;;13.48;100.00;98583.47;5020025;28;20389;-39
2023/04/28 05:00:22;;;;;;;;;;;;;;;13.74;100.00;98583.00;5021244;28;20455;-39
2023/04/28 05:02:47;;;;;;;;;;;;;;;13.32;100.00;98568.75;5020033;28;19959;-39
2023/04/28 05:05:12;;;;;;;;;;;;;;;12.69;100.00;98595.03;5025280;28;20100;-40
2023/04/28 05:07:38;;;;;;;;;;;;;;;13.40;100.00;98609.75;5023961;28;20416;-40
2023/04/28 05:10:03;;;;;;;;;;;;;;;13.33;100.00;98604.03;5024573;28;19917;-39
2023/04/28 05:12:28;;;;;;;;;;;;;;;13.35;100.00;98620.31;5027157;28;19916;-39
2023/04/28 05:14:54;;;;;;;;;;;;;;;13.56;100.00;98636.50;5028337;28;20313;-39
2023/04/28 05:17:19;;;;;;;;;;;;;;;13.28;100.00;98637.06;5023169;28;19925;-40
2023/04/28 05:19:44;;;;;;;;;;;;;;;13.75;100.00;98636.44;5025042;28;19917;-40
2023/04/28 05:22:10;;;;;;;;;;;;;;;13.34;100.00;98621.25;5023729;28;19917;-39
2023/04/28 05:24:35;;;;;;;;;;;;;;;13.34;100.00;98621.25;5028331;28;20344;-39
2023/04/28 05:27:00;;;;;;;;;;;;;;;13.18;100.00;98609.91;5025721;28;19923;-39
2023/04/28 05:29:26;;;;;;;;;;;;;;;13.43;100.00;98614.75;5023189;28;20207;-39
2023/04/28 05:31:51;;;;;;;;;;;;;;;12.74;100.00;98634.41;5021398;28;19921;-39
2023/04/28 05:34:16;;;;;;;;;;;;;;;12.65;100.00;98654.66;5017669;28;19917;-39
2023/04/28 05:36:41;;;;;;;;;;;;;;;13.23;100.00;98687.28;5018789;28;20254;-39
2023/04/28 05:39:07;;;;;;;;;;;;;;;12.83;100.00;98682.25;5017586;28;19944;-39
2023/04/28 05:41:33;;;;;;;;;;;;;;;13.20;100.00;98711.53;5024179;28;19916;-39
2023/04/28 05:43:59;;;;;;;;;;;;;;;13.47;100.00;98709.41;5018500;28;19971;-39
2023/04/28 05:46:24;;;;;;;;;;;;;;;13.87;100.00;98706.63;5018459;28;20340;-39
2023/04/28 05:48:49;;;;;;;;;;;;;;;14.05;100.00;98689.28;5017802;28;19928;-39
2023/04/28 05:51:15;;;;;;;;;;;;;;;13.45;100.00;98695.69;5018760;28;19922;-39
2023/04/28 05:53:40;;;;;;;;;;;;;;;13.88;100.00;98706.53;5023022;28;20212;-39
2023/04/28 05:56:06;;;;;;;;;;;;;;;13.41;100.00;98708.88;5021005;28;19928;-39
2023/04/28 05:58:31;;;;;;;;;;;;;;;13.95;100.00;98743.31;5020914;28;19984;-39
2023/04/28 06:00:57;;;;;;;;;;;;;;;13.77;100.00;98737.28;5019258;28;19974;-40
2023/04/28 06:03:22;;;;;;;;;;;;;;;13.62;100.00;98751.81;5017445;28;19995;-40
2023/04/28 06:05:47;;;;;;;;;;;;;;;13.98;100.00;98736.22;5019486;28;20404;-39
2023/04/28 06:08:12;;;;;;;;;;;;;;;13.44;100.00;98757.88;5019127;28;20011;-39
2023/04/28 06:10:38;;;;;;;;;;;;;;;13.52;100.00;98764.34;5023881;28;20830;-39
2023/04/28 06:13:05;;;;;;;;;;;;;;;14.14;100.00;98785.50;5017430;28;19979;-39
2023/04/28 06:15:30;;;;;;;;;;;;;;;14.14;100.00;98761.34;5024583;28;20534;-39
2023/04/28 06:17:57;;;;;;;;;;;;;;;13.13;100.00;98767.88;5016564;28;19921;-39
2023/04/28 06:20:23;;;;;;;;;;;;;;;13.72;100.00;98797.03;5016428;28;20352;-39
2023/04/28 06:22:48;;;;;;;;;;;;;;;13.57;100.00;98793.44;5016807;28;20019;-39
2023/04/28 06:25:13;;;;;;;;;;;;;;;13.91;100.00;98803.91;5018484;28;19956;-39
2023/04/28 06:27:38;;;;;;;;;;;;;;;14.42;100.00;98781.50;5017606;28;19980;-39
2023/04/28 06:30:04;;;;;;;;;;;;;;;13.88;100.00;98798.88;5019532;28;19913;-39
2023/04/28 06:32:29;;;;;;;;;;;;;;;14.17;100.00;98800.88;5026080;28;19925;-40
2023/04/28 06:34:54;;;;;;;;;;;;;;;14.37;100.00;98796.47;5022593;28;19913;-39
2023/04/28 06:37:20;;;;;;;;;;;;;;;14.15;100.00;98799.28;5027045;28;19959;-39
2023/04/28 06:39:45;;;;;;;;;;;;;;;13.63;100.00;98813.00;5018815;28;19917;-39
2023/04/28 06:42:10;;;;;;;;;;;;;;;14.53;100.00;98831.03;5024929;28;20405;-39
2023/04/28 06:44:35;;;;;;;;;;;;;;;14.23;100.00;98829.06;5021890;28;20408;-39
2023/04/28 06:47:00;;;;;;;;;;;;;;;14.27;100.00;98809.00;5024449;28;19972;-39
2023/04/28 06:49:26;;;;;;;;;;;;;;;13.98;100.00;98826.84;5004667;28;19967;-39
2023/04/28 06:51:51;;;;;;;;;;;;;;;13.95;100.00;98829.56;5025973;28;19923;-39
2023/04/28 06:54:17;;;;;;;;;;;;;;;14.36;100.00;98833.63;5022983;28;19926;-39
2023/04/28 06:56:42;;;;;;;;;;;;;;;14.72;100.00;98830.13;5019829;28;19917;-38
2023/04/28 06:59:07;;;;;;;;;;;;;;;14.13;100.00;98807.13;5022456;28;20290;-39
2023/04/28 07:01:33;;;;;;;;;;;;;;;14.35;100.00;98831.97;5022697;28;19921;-39
2023/04/28 07:03:58;;;;;;;;;;;;;;;14.36;100.00;98838.81;5024958;28;20425;-39
2023/04/28 07:06:23;;;;;;;;;;;;;;;15.11;100.00;98821.16;5018795;28;20369;-39
2023/04/28 07:08:48;;;;;;;;;;;;;;;14.54;100.00;98757.56;5027549;28;19924;-39
2023/04/28 07:11:15;;;;;;;;;;;;;;;14.38;100.00;98777.41;5028522;28;19962;-39
2023/04/28 07:13:40;;;;;;;;;;;;;;;14.24;100.00;98793.63;5022881;28;19948;-39
2023/04/28 07:16:05;;;;;;;;;;;;;;;14.47;100.00;98796.81;5021525;28;19932;-39
2023/04/28 07:18:31;;;;;;;;;;;;;;;14.78;100.00;98814.22;5021053;28;19934;-39
2023/04/28 07:20:56;;;;;;;;;;;;;;;14.40;100.00;98819.63;5024406;28;20755;-39
2023/04/28 07:23:21;;;;;;;;;;;;;;;14.67;100.00;98816.56;5028186;28;19921;-39
2023/04/28 07:25:46;;;;;;;;;;;;;;;14.69;100.00;98810.38;5020198;28;19917;-39
2023/04/28 07:28:12;;;;;;;;;;;;;;;14.67;100.00;98827.75;5022680;28;20024;-39
2023/04/28 07:30:37;;;;;;;;;;;;;;;15.35;100.00;98835.41;5024418;28;20202;-39
2023/04/28 07:33:03;;;;;;;;;;;;;;;15.48;100.00;98807.84;5024278;28;20423;-39
2023/04/28 07:35:28;;;;;;;;;;;;;;;15.33;100.00;98795.75;5010343;28;20374;-40
2023/04/28 07:37:53;;;;;;;;;;;;;;;15.35;100.00;98778.34;5015824;28;20404;-39
2023/04/28 07:40:19;;;;;;;;;;;;;;;15.21;100.00;98786.00;5021015;28;20176;-39
2023/04/28 07:42:44;;;;;;;;;;;;;;;15.77;100.00;98795.03;5028109;28;20370;-39
2023/04/28 07:45:09;;;;;;;;;;;;;;;15.16;100.00;98777.66;5025608;28;20357;-39
2023/04/28 07:47:35;;;;;;;;;;;;;;;15.68;100.00;98785.97;5017887;28;20803;-39
2023/04/28 07:50:03;;;;;;;;;;;;;;;15.27;100.00;98759.75;5028926;28;19921;-39
2023/04/28 07:52:29;;;;;;;;;;;;;;;15.79;100.00;98730.88;5020956;28;19948;-39
2023/04/28 07:54:54;;;;;;;;;;;;;;;15.81;100.00;98748.97;5019878;28;20247;-44
2023/04/28 07:57:19;;;;;;;;;;;;;;;15.34;100.00;98709.19;5022563;28;20421;-39
2023/04/28 07:59:45;;;;;;;;;;;;;;;15.10;100.00;98702.75;5029554;28;19921;-39
2023/04/28 08:02:12;;;;;;;;;;;;;;;15.76;100.00;98710.31;5022121;28;19956;-39
2023/04/28 08:04:37;;;;;;;;;;;;;;;15.45;100.00;98670.50;5018581;28;19921;-39
2023/04/28 08:07:03;;;;;;;;;;;;;;;15.42;100.00;98673.28;5017252;28;20264;-39
2023/04/28 08:09:28;;;;;;;;;;;;;;;14.75;100.00;98674.41;5019911;28;19917;-39
2023/04/28 08:11:53;;;;;;;;;;;;;;;15.91;100.00;98676.56;5024625;28;20562;-40
2023/04/28 08:14:19;;;;;;;;;;;;;;;16.41;100.00;98668.31;5021154;28;19920;-39
2023/04/28 08:16:45;;;;;;;;;;;;;;;18.00;100.00;98567.84;5020450;28;19932;-40
2023/04/28 08:19:10;;;;;;;;;;;;;;;16.51;100.00;98510.88;5021750;28;19925;-39
2023/04/28 08:21:35;;;;;;;;;;;;;;;17.50;100.00;98458.38;5011978;28;20580;-39
2023/04/28 08:24:01;;;;;;;;;;;;;;;17.29;100.00;98450.28;5006125;28;20373;-39
2023/04/28 08:26:26;;;;;;;;;;;;;;;18.71;100.00;98409.75;5022693;28;20360;-40
2023/04/28 08:28:51;;;;;;;;;;;;;;;17.60;100.00;98405.66;5027277;28;19998;-39
2023/04/28 08:31:17;;;;;;;;;;;;;;;16.78;100.00;98419.00;5026306;28;19999;-39
2023/04/28 08:33:43;;;;;;;;;;;;;;;16.86;100.00;98423.72;5023049;28;20027;-39
2023/04/28 08:36:10;;;;;;;;;;;;;;;18.51;100.00;98403.41;5030315;28;19921;-40
2023/04/28 08:38:36;;;;;;;;;;;;;;;18.66;100.00;98396.25;5014191;28;19924;-39
2023/04/28 08:41:02;;;;;;;;;;;;;;;17.31;100.00;98379.88;5015768;28;19921;-39
2023/04/28 08:43:29;;;;;;;;;;;;;;;18.24;100.00;98358.53;5028045;28;20015;-39
2023/04/28 08:45:54;;;;;;;;;;;;;;;18.38;100.00;98351.38;5029106;28;19944;-40
2023/04/28 08:48:20;;;;;;;;;;;;;;;18.28;100.00;98359.97;5028334;28;19921;-40
2023/04/28 08:50:48;;;;;;;;;;;;;;;18.30;100.00;98348.50;5022558;28;20282;-39
2023/04/28 08:53:13;;;;;;;;;;;;;;;17.21;100.00;98352.84;5028798;28;20614;-39
2023/04/28 08:55:38;;;;;;;;;;;;;;;18.28;100.00;98360.81;5022161;28;19917;-40
2023/04/28 08:58:03;;;;;;;;;;;;;;;18.33;100.00;98332.59;5016617;28;19963;-39
2023/04/28 09:00:28;;;;;;;;;;;;;;;18.02;100.00;98341.03;5023388;28;19960;-39
2023/04/28 09:02:54;;;;;;;;;;;;;;;18.95;100.00;98334.06;5021162;28;19970;-39
2023/04/28 09:05:21;;;;;;;;;;;;;;;18.99;100.00;98318.97;5030448;28;20321;-40
2023/04/28 09:07:47;;;;;;;;;;;;;;;17.05;100.00;98359.09;5028087;28;19959;-39
2023/04/28 09:10:16;;;;;;;;;;;;;;;17.54;100.00;98379.13;5027503;28;19920;-39
2023/04/28 09:12:41;;;;;;;;;;;;;;;17.82;100.00;98382.41;5024957;28;19939;-39
2023/04/28 09:15:08;;;;;;;;;;;;;;;17.91;100.00;98373.91;5024504;28;20366;-40
2023/04/28 09:17:45;;;;;;;;;;;;;;;18.42;100.00;98361.56;5028448;28;20441;-39
2023/04/28 09:20:21;;;;;;;;;;;;;;;19.12;100.00;98335.34;5006533;28;19917;-41
2023/04/28 09:22:46;;;;;;;;;;;;;;;17.69;100.00;98347.72;5025536;28;19917;-39
2023/04/28 09:25:12;;;;;;;;;;;;;;;17.58;100.00;98348.47;5027370;28;19917;-43
2023/04/28 09:27:37;;;;;;;;;;;;;;;18.95;100.00;98333.22;5021660;28;19917;-40
2023/04/28 09:30:03;;;;;;;;;;;;;;;18.98;100.00;98312.13;5028420;28;19928;-39
2023/04/28 09:32:29;;;;;;;;;;;;;;;18.61;100.00;98330.56;5029652;28;19923;-40
2023/04/28 09:34:58;;;;;;;;;;;;;;;19.78;100.00;98295.38;5026097;28;20370;-40
2023/04/28 09:37:24;;;;;;;;;;;;;;;20.11;100.00;98267.41;5033692;28;20022;-40
2023/04/28 09:39:50;;;;;;;;;;;;;;;19.32;100.00;98292.03;5023359;28;19925;-39
2023/04/28 09:42:29;;;;;;;;;;;;;;;19.94;100.00;98272.25;5018711;28;19943;-39
2023/04/28 09:44:54;;;;;;;;;;;;;;;19.26;100.00;98289.06;5021304;28;19921;-39
2023/04/28 09:47:24;;;;;;;;;;;;;;;19.32;100.00;98283.38;5019305;28;19917;-39
2023/04/28 09:49:55;;;;;;;;;;;;;;;19.47;100.00;98276.91;5023292;28;19921;-39
2023/04/28 09:52:22;;;;;;;;;;;;;;;20.34;100.00;98258.47;5024451;28;20451;-39
2023/04/28 09:54:48;;;;;;;;;;;;;;;19.20;100.00;98280.78;5020424;28;20003;-39
2023/04/28 09:57:13;;;;;;;;;;;;;;;19.36;100.00;98279.53;5019987;28;19925;-39
2023/04/28 09:59:39;;;;;;;;;;;;;;;20.31;100.00;98287.50;5021707;28;19943;-39
2023/04/28 10:02:04;;;;;;;;;;;;;;;20.21;100.00;98260.47;5021324;28;19921;-39
2023/04/28 10:04:32;;;;;;;;;;;;;;;20.97;100.00;98260.19;5014747;28;19920;-40
2023/04/28 10:06:58;;;;;;;;;;;;;;;21.26;100.00;98236.69;5023388;28;19917;-39
2023/04/28 10:09:25;;;;;;;;;;;;;;;20.72;100.00;98238.72;5018721;28;19917;-40
2023/04/28 10:11:51;;;;;;;;;;;;;;;20.79;100.00;98252.94;5017429;28;19924;-39
2023/04/28 10:14:16;;;;;;;;;;;;;;;21.99;100.00;98241.56;5019844;28;19947;-40
2023/04/28 10:16:42;;;;;;;;;;;;;;;21.76;100.00;98233.13;5019814;28;19947;-39
2023/04/28 10:19:07;;;;;;;;;;;;;;;21.40;100.00;98252.03;5031103;28;19920;-40
2023/04/28 10:21:33;;;;;;;;;;;;;;;21.37;100.00;98247.03;5019484;28;20082;-39
2023/04/28 10:24:03;;;;;;;;;;;;;;;20.34;100.00;98296.88;5021245;28;20004;-40
2023/04/28 10:26:35;;;;;;;;;;;;;;;20.48;100.00;98297.41;5017682;28;19928;-39
2023/04/28 10:29:00;;;;;;;;;;;;;;;21.82;100.00;98256.19;5021859;28;19925;-39
2023/04/28 10:31:25;;;;;;;;;;;;;;;21.39;100.00;98273.91;5017078;28;19921;-40
2023/04/28 10:33:51;;;;;;;;;;;;;;;22.38;100.00;98228.41;5024465;28;20008;-39
2023/04/28 10:36:34;;;;;;;;;;;;;;;23.15;100.00;98203.59;5020974;28;20031;-39
2023/04/28 10:39:10;;;;;;;;;;;;;;;22.47;100.00;98211.78;5022586;28;19939;-39
2023/04/28 10:41:35;;;;;;;;;;;;;;;22.67;100.00;98213.38;5000591;28;19921;-39
2023/04/28 10:44:01;;;;;;;;;;;;;;;21.15;100.00;98234.19;5018183;28;20455;-39
2023/04/28 10:46:26;;;;;;;;;;;;;;;19.88;100.00;98291.03;5020497;28;20073;-40
2023/04/28 10:48:51;;;;;;;;;;;;;;;20.13;100.00;98283.81;5024340;28;20050;-39
2023/04/28 10:51:17;;;;;;;;;;;;;;;22.31;100.00;98254.38;5021846;28;19920;-39
2023/04/28 10:53:45;;;;;;;;;;;;;;;23.91;100.00;98212.84;5021318;28;19920;-40
2023/04/28 10:56:15;;;;;;;;;;;;;;;24.11;100.00;98181.91;5022826;28;19952;-40
2023/04/28 10:58:41;;;;;;;;;;;;;;;23.95;100.00;98193.16;5021384;28;19929;-40
2023/04/28 11:01:18;;;;;;;;;;;;;;;21.18;100.00;98271.38;5018997;28;19917;-40
2023/04/28 11:03:47;;;;;;;;;;;;;;;23.02;100.00;98227.59;5020396;28;21791;-40
2023/04/28 11:06:27;;;;;;;;;;;;;;;22.58;100.00;98231.75;5018058;28;19975;-40
2023/04/28 11:08:54;;;;;;;;;;;;;;;22.29;100.00;98230.88;5019527;28;19921;-40
2023/04/28 11:11:24;;;;;;;;;;;;;;;23.17;100.00;98210.34;5014339;28;20159;-40
2023/04/28 11:13:50;;;;;;;;;;;;;;;22.65;100.00;98240.69;5021132;28;20047;-40
2023/04/28 11:16:16;;;;;;;;;;;;;;;22.65;100.00;98209.22;5020535;28;19967;-40
2023/04/28 11:18:54;;;;;;;;;;;;;;;22.79;100.00;98221.88;5019683;28;20415;-40
2023/04/28 11:21:20;;;;;;;;;;;;;;;23.44;100.00;98207.81;5021476;28;21120;-40
2023/04/28 11:23:46;;;;;;;;;;;;;;;23.39;100.00;98198.56;5024952;28;19931;-40
2023/04/28 11:26:11;;;;;;;;;;;;;;;22.57;100.00;98224.88;5019580;28;19917;-40
2023/04/28 11:28:45;;;;;;;;;;;;;;;23.46;100.00;98190.09;5021280;28;20452;-40
2023/04/28 11:31:17;;;;;;;;;;;;;;;23.54;100.00;98195.44;5019325;28;20643;-40
2023/04/28 11:33:43;;;;;;;;;;;;;;;23.82;100.00;98190.09;5020249;28;19921;-40
2023/04/28 11:36:20;;;;;;;;;;;;;;;24.20;100.00;98173.91;5017946;28;19919;-40
2023/04/28 11:38:47;;;;;;;;;;;;;;;21.74;100.00;98230.69;5019397;28;21136;-40
2023/04/28 11:41:12;;;;;;;;;;;;;;;23.73;100.00;98194.44;5024351;28;19963;-39
2023/04/28 11:43:38;;;;;;;;;;;;;;;24.21;100.00;98172.91;5021384;28;19921;-39
2023/04/28 11:46:03;;;;;;;;;;;;;;;23.97;100.00;98193.78;5019465;28;20281;-40
2023/04/28 11:48:28;;;;;;;;;;;;;;;23.75;100.00;98177.56;5019646;28;20286;-40
2023/04/28 11:50:53;;;;;;;;;;;;;;;23.51;100.00;98195.72;5019175;28;20317;-39
2023/04/28 11:53:19;;;;;;;;;;;;;;;24.63;100.00;98156.38;5019317;28;20544;-40
2023/04/28 11:55:44;;;;;;;;;;;;;;;24.29;100.00;98168.66;5019130;28;20369;-45
2023/04/28 11:58:21;;;;;;;;;;;;;;;24.60;100.00;98164.56;5022872;28;19935;-46
2023/04/28 12:01:05;;;;;;;;;;;;;;;25.16;100.00;98162.25;5018834;28;19963;-46
2023/04/28 12:03:30;;;;;;;;;;;;;;;24.75;100.00;98162.16;5020563;28;19971;-46
2023/04/28 12:05:55;;;;;;;;;;;;;;;24.48;100.00;98179.00;5006000;28;19924;-46
2023/04/28 12:08:27;;;;;;;;;;;;;;;24.12;100.00;98204.59;5026231;28;19963;-45
2023/04/28 12:11:09;;;;;;;;;;;;;;;23.52;100.00;98226.28;5017010;28;20394;-46
2023/04/28 12:13:35;;;;;;;;;;;;;;;23.66;100.00;98204.72;5022254;28;20006;-46
2023/04/28 12:16:02;;;;;;;;;;;;;;;23.57;100.00;98227.47;5025426;28;19960;-45
2023/04/28 12:18:27;;;;;;;;;;;;;;;24.08;100.00;98193.53;5021645;28;19921;-45
2023/04/28 12:20:52;;;;;;;;;;;;;;;24.26;100.00;98190.84;5022327;28;20487;-40
2023/04/28 12:23:27;;;;;;;;;;;;;;;24.86;100.00;98176.84;5020707;28;19917;-40
2023/04/28 12:25:53;;;;;;;;;;;;;;;22.16;100.00;98234.75;5021311;28;19994;-40
2023/04/28 12:28:18;;;;;;;;;;;;;;;22.37;100.00;98243.28;5021655;28;19917;-40
2023/04/28 12:30:44;;;;;;;;;;;;;;;22.75;100.00;98265.94;5016324;28;19921;-40
2023/04/28 12:33:25;;;;;;;;;;;;;;;20.41;100.00;98306.72;5003245;28;19921;-40